Time;durP1;ratioP1;P1;durP2;ratioP2;P2;SDS_P1;SDS_P2;PMS_P1;PMS_P2;Temp;Humidity;BMP_temperature;BMP_pressure;BME280_temperature;BME280_humidity;BME280_pressure;Samples;Min_cycle;Max_cycle;Signal;HPM_P1;HPM_P2
2023/01/26 00:01:12;;;;;;;72.47;43.83;;;7.10;94.90;;;;;;5072280;28;20028;-63
2023/01/26 00:03:38;;;;;;;72.60;44.65;;;7.10;95.00;;;;;;5071985;28;20489;-63
2023/01/26 00:06:08;;;;;;;76.78;45.30;;;7.10;94.90;;;;;;5072087;28;20067;-63
2023/01/26 00:08:38;;;;;;;71.45;43.70;;;7.10;94.80;;;;;;5069638;28;20021;-63
2023/01/26 00:11:05;;;;;;;73.45;42.47;;;7.10;94.90;;;;;;5072243;28;20028;-62
2023/01/26 00:13:31;;;;;;;70.38;42.85;;;7.10;95.00;;;;;;5072144;28;20035;-63
2023/01/26 00:15:56;;;;;;;74.30;43.17;;;7.10;95.00;;;;;;5072153;28;20100;-63
2023/01/26 00:18:22;;;;;;;68.15;41.03;;;7.00;95.00;;;;;;5071248;28;20116;-63
2023/01/26 00:20:49;;;;;;;73.47;42.58;;;7.10;94.90;;;;;;5053164;28;20104;-62
2023/01/26 00:23:14;;;;;;;72.65;42.38;;;7.00;94.90;;;;;;5072749;28;20039;-63
2023/01/26 00:25:40;;;;;;;70.40;42.65;;;7.10;95.00;;;;;;5075750;28;20028;-65
2023/01/26 00:28:06;;;;;;;68.68;41.50;;;7.10;95.10;;;;;;5076116;28;20043;-63
2023/01/26 00:30:31;;;;;;;66.78;40.38;;;7.00;95.10;;;;;;5075319;28;20104;-64
2023/01/26 00:32:57;;;;;;;71.05;42.38;;;7.00;95.00;;;;;;5075672;28;20032;-63
2023/01/26 00:35:23;;;;;;;72.93;42.55;;;7.00;95.20;;;;;;5075883;28;20031;-63
2023/01/26 00:37:49;;;;;;;69.05;40.67;;;7.10;95.10;;;;;;5075735;28;20521;-63
2023/01/26 00:40:14;;;;;;;71.75;42.60;;;7.00;95.10;;;;;;5074862;28;20158;-65
2023/01/26 00:42:40;;;;;;;67.18;40.63;;;6.90;95.20;;;;;;5057731;28;20477;-63
2023/01/26 00:45:06;;;;;;;70.45;40.63;;;6.90;95.20;;;;;;5075762;28;20137;-63
2023/01/26 00:47:31;;;;;;;64.88;39.00;;;7.00;95.20;;;;;;5075212;28;20029;-64
2023/01/26 00:49:57;;;;;;;67.40;39.90;;;7.00;95.20;;;;;;5074616;28;20027;-62
2023/01/26 00:52:22;;;;;;;70.18;39.42;;;7.00;95.10;;;;;;5074587;28;20598;-62
2023/01/26 00:54:48;;;;;;;68.28;41.08;;;7.00;95.20;;;;;;5075759;28;20127;-64
2023/01/26 00:57:13;;;;;;;66.57;40.20;;;6.90;95.30;;;;;;5075471;28;20126;-62
2023/01/26 00:59:39;;;;;;;67.65;39.78;;;6.90;95.30;;;;;;5074416;28;20056;-62
2023/01/26 01:02:05;;;;;;;71.72;41.55;;;6.90;95.40;;;;;;5075233;28;20050;-63
2023/01/26 01:04:30;;;;;;;65.30;40.10;;;7.00;95.20;;;;;;5075637;28;20067;-62
2023/01/26 01:06:57;;;;;;;65.88;39.80;;;6.90;95.40;;;;;;5075143;28;20086;-62
2023/01/26 01:09:23;;;;;;;64.35;39.20;;;6.90;95.40;;;;;;5074164;28;20505;-62
2023/01/26 01:11:48;;;;;;;62.97;37.95;;;7.00;95.50;;;;;;5074245;28;20029;-63
2023/01/26 01:14:15;;;;;;;64.93;38.80;;;6.90;95.40;;;;;;5075104;28;20064;-62
2023/01/26 01:16:41;;;;;;;67.03;39.75;;;6.90;95.40;;;;;;5074110;28;20138;-62
2023/01/26 01:19:07;;;;;;;60.10;38.28;;;6.90;95.60;;;;;;5075051;28;20393;-62
2023/01/26 01:21:33;;;;;;;66.85;40.65;;;6.90;95.50;;;;;;5073713;28;20508;-62
2023/01/26 01:23:59;;;;;;;63.90;38.55;;;6.90;95.40;;;;;;5075071;28;20424;-62
2023/01/26 01:26:26;;;;;;;67.15;40.60;;;7.00;95.40;;;;;;5073978;28;20036;-62
2023/01/26 01:28:54;;;;;;;66.07;39.28;;;6.90;95.40;;;;;;5074491;28;20046;-63
2023/01/26 01:31:21;;;;;;;64.13;38.30;;;6.90;95.40;;;;;;5074861;28;20382;-63
2023/01/26 01:33:46;;;;;;;64.88;38.45;;;6.90;95.50;;;;;;5074777;28;20101;-63
2023/01/26 01:36:14;;;;;;;67.43;40.25;;;6.80;95.50;;;;;;5072540;28;20096;-64
2023/01/26 01:38:41;;;;;;;64.25;37.80;;;6.90;95.50;;;;;;5074457;28;20035;-64
2023/01/26 01:41:07;;;;;;;66.30;39.78;;;6.90;95.50;;;;;;5074795;28;20047;-62
2023/01/26 01:43:33;;;;;;;67.28;39.38;;;6.90;95.50;;;;;;5074149;28;20024;-64
2023/01/26 01:46:30;;;;;;;66.78;40.15;;;6.90;95.50;;;;;;5073799;28;20045;-62
2023/01/26 01:49:00;;;;;;;67.05;39.55;;;6.90;95.30;;;;;;5064885;28;20102;-62
2023/01/26 01:51:33;;;;;;;67.00;38.10;;;7.00;95.30;;;;;;5074502;28;20020;-62
2023/01/26 01:54:04;;;;;;;61.58;37.88;;;7.00;95.50;;;;;;5074108;28;20040;-63
2023/01/26 01:56:32;;;;;;;65.57;39.15;;;6.90;95.50;;;;;;5073258;28;20028;-62
2023/01/26 01:59:00;;;;;;;65.43;38.63;;;7.00;95.50;;;;;;5073979;28;20082;-62
2023/01/26 02:01:26;;;;;;;67.22;38.30;;;6.90;95.40;;;;;;5074194;28;20377;-62
2023/01/26 02:03:59;;;;;;;65.40;38.13;;;6.90;95.50;;;;;;5074155;28;20024;-62
2023/01/26 02:06:29;;;;;;;;;;;6.90;95.50;;;;;;5073771;28;20020;-63
2023/01/26 02:08:56;;;;;;;65.90;38.67;;;6.90;95.50;;;;;;5068831;28;19913;-62
2023/01/26 02:11:28;;;;;;;68.25;38.92;;;6.90;95.50;;;;;;5066148;28;20366;-62
2023/01/26 02:13:56;;;;;;;67.40;37.63;;;6.90;95.60;;;;;;5056362;28;20036;-63
2023/01/26 02:16:22;;;;;;;67.50;38.17;;;7.00;95.50;;;;;;5065617;28;20015;-62
2023/01/26 02:18:47;;;;;;;67.68;38.20;;;7.00;95.50;;;;;;5072570;28;20389;-62
2023/01/26 02:21:16;;;;;;;65.15;37.35;;;6.90;95.40;;;;;;5074032;28;20055;-62
2023/01/26 02:23:45;;;;;;;68.38;38.28;;;6.90;95.60;;;;;;5072717;28;20108;-62
2023/01/26 02:26:14;;;;;;;67.95;37.70;;;6.90;95.80;;;;;;5073668;28;20033;-62
2023/01/26 02:28:41;;;;;;;67.80;38.97;;;6.90;95.60;;;;;;5073286;28;20020;-62
2023/01/26 02:31:08;;;;;;;70.63;39.33;;;7.00;95.60;;;;;;5073765;28;20107;-62
2023/01/26 02:33:34;;;;;;;68.70;38.67;;;7.00;95.50;;;;;;5072260;28;20167;-61
2023/01/26 02:36:01;;;;;;;65.85;38.60;;;7.00;95.60;;;;;;5073464;28;20500;-63
2023/01/26 02:38:35;;;;;;;72.28;41.10;;;7.00;95.50;;;;;;5073537;28;20085;-61
2023/01/26 02:41:05;;;;;;;66.32;37.97;;;6.90;95.50;;;;;;5072523;28;20036;-62
2023/01/26 02:43:31;;;;;;;68.20;39.67;;;6.90;95.50;;;;;;5072300;28;20036;-64
2023/01/26 02:45:57;;;;;;;70.63;39.47;;;6.90;95.50;;;;;;5073147;28;20109;-62
2023/01/26 02:51:07;;;;;;;68.45;38.90;;;7.00;95.60;;;;;;5072822;28;20417;-62
2023/01/26 02:53:32;;;;;;;70.07;39.38;;;7.00;95.60;;;;;;5073144;28;20029;-62
2023/01/26 02:55:58;;;;;;;68.43;39.20;;;7.00;95.60;;;;;;5072941;28;20031;-62
2023/01/26 02:58:24;;;;;;;75.75;41.58;;;7.00;95.60;;;;;;5073432;28;20424;-62
2023/01/26 03:00:50;;;;;;;72.45;40.88;;;7.00;95.70;;;;;;5071881;28;20085;-61
2023/01/26 03:03:19;;;;;;;72.40;38.08;;;6.90;95.70;;;;;;5071741;28;20021;-62
2023/01/26 03:05:45;;;;;;;69.78;39.22;;;6.90;95.80;;;;;;5072965;28;20028;-62
2023/01/26 03:08:11;;;;;;;72.45;40.20;;;7.00;95.70;;;;;;5073053;28;20066;-62
2023/01/26 03:10:36;;;;;;;74.40;40.33;;;6.90;95.70;;;;;;5072050;28;20032;-62
2023/01/26 03:13:03;;;;;;;69.90;40.47;;;6.90;95.70;;;;;;5072950;28;20029;-62
2023/01/26 03:15:41;;;;;;;69.20;41.20;;;6.90;95.70;;;;;;5072719;28;20024;-62
2023/01/26 03:29:12;;;;;;;71.25;37.83;;;6.90;95.90;;;;;;5071672;28;20047;-62
2023/01/26 03:31:37;;;;;;;70.72;38.67;;;6.90;95.90;;;;;;5072447;28;20025;-62
2023/01/26 03:34:03;;;;;;;68.07;38.95;;;6.80;96.00;;;;;;5072804;28;20052;-62
2023/01/26 03:36:29;;;;;;;72.68;39.63;;;6.90;96.00;;;;;;5072726;28;20536;-62
2023/01/26 03:38:55;;;;;;;69.55;39.15;;;6.80;96.00;;;;;;5069294;28;20020;-62
2023/01/26 03:57:44;;;;;;;63.33;35.13;;;6.80;96.10;;;;;;5071641;28;20079;-63
2023/01/26 04:00:11;;;;;;;63.83;35.58;;;6.90;96.10;;;;;;5071387;28;20438;-62
2023/01/26 04:08:25;;;;;;;55.53;32.00;;;6.80;96.40;;;;;;5071424;28;20082;-62
2023/01/26 04:10:53;;;;;;;62.85;35.00;;;6.80;96.40;;;;;;5070313;28;20024;-62
2023/01/26 04:21:36;;;;;;;55.10;30.67;;;6.80;96.30;;;;;;5072432;28;20066;-62
2023/01/26 04:24:12;;;;;;;52.92;30.73;;;6.80;96.40;;;;;;5071600;28;20052;-62
2023/01/26 04:26:39;;;;;;;53.28;30.20;;;6.90;96.40;;;;;;5070792;28;20036;-62
2023/01/26 04:29:07;;;;;;;52.67;30.08;;;6.90;96.30;;;;;;5072061;28;20138;-61
2023/01/26 04:31:32;;;;;;;49.28;29.38;;;6.80;96.30;;;;;;5072004;28;20086;-62
2023/01/26 04:33:59;;;;;;;46.63;28.00;;;6.80;96.30;;;;;;5071261;28;20494;-62
2023/01/26 04:36:25;;;;;;;46.45;26.75;;;6.80;96.30;;;;;;5072000;28;20529;-62
2023/01/26 04:38:51;;;;;;;44.45;26.83;;;6.80;96.30;;;;;;5071532;28;20104;-62
2023/01/26 04:41:16;;;;;;;45.47;26.58;;;6.80;96.40;;;;;;5071993;28;20477;-63
2023/01/26 04:43:42;;;;;;;46.28;28.88;;;6.90;96.40;;;;;;5070428;28;20765;-62
2023/01/26 04:46:08;;;;;;;47.67;28.42;;;6.90;96.50;;;;;;5071243;28;20540;-62
2023/01/26 04:48:34;;;;;;;44.90;27.75;;;6.90;96.50;;;;;;5071985;28;20074;-62
2023/01/26 04:51:03;;;;;;;45.33;26.95;;;6.90;96.50;;;;;;5071921;28;20020;-62
2023/01/26 04:53:31;;;;;;;40.80;25.05;;;6.90;96.50;;;;;;5069799;28;20482;-63
2023/01/26 04:55:56;;;;;;;43.75;25.90;;;6.90;96.50;;;;;;5072112;28;20273;-62
2023/01/26 04:58:22;;;;;;;42.10;25.20;;;6.90;96.60;;;;;;5071735;28;20138;-62
2023/01/26 05:00:55;;;;;;;41.50;25.17;;;6.90;96.50;;;;;;5069924;28;20511;-62
2023/01/26 05:03:22;;;;;;;37.92;23.85;;;6.90;96.40;;;;;;5070008;28;20028;-62
2023/01/26 05:05:53;;;;;;;40.95;24.65;;;6.80;96.50;;;;;;5071598;28;20092;-62
2023/01/26 05:08:20;;;;;;;42.05;24.50;;;6.90;96.50;;;;;;5071333;28;20065;-62
2023/01/26 05:10:46;;;;;;;37.55;23.23;;;6.80;96.60;;;;;;5073558;28;20033;-62
2023/01/26 05:13:12;;;;;;;38.78;24.48;;;6.90;96.60;;;;;;5075329;28;20036;-62
2023/01/26 05:15:39;;;;;;;41.63;24.55;;;6.90;96.60;;;;;;5075381;28;20023;-62
2023/01/26 05:18:05;;;;;;;36.17;22.40;;;6.90;96.60;;;;;;5075025;28;20460;-63
2023/01/26 05:20:31;;;;;;;36.08;23.58;;;6.90;96.70;;;;;;5074137;28;20021;-62
2023/01/26 05:22:56;;;;;;;37.47;23.63;;;6.90;96.70;;;;;;5074915;28;20035;-62
2023/01/26 05:25:22;;;;;;;39.70;24.38;;;6.90;96.60;;;;;;5074913;28;20493;-63
2023/01/26 05:27:48;;;;;;;38.30;22.35;;;6.90;96.70;;;;;;5074924;28;20035;-63
2023/01/26 05:30:15;;;;;;;33.63;21.63;;;6.90;96.80;;;;;;5073809;28;20056;-63
2023/01/26 05:32:40;;;;;;;34.45;21.50;;;6.90;96.70;;;;;;5074791;28;20028;-62
2023/01/26 05:35:07;;;;;;;34.63;21.52;;;6.90;96.80;;;;;;5073887;28;20040;-62
2023/01/26 05:37:33;;;;;;;36.95;23.17;;;6.90;96.70;;;;;;5073909;28;20496;-63
2023/01/26 05:39:59;;;;;;;34.25;21.88;;;6.90;96.60;;;;;;5074739;28;20105;-62
2023/01/26 05:42:26;;;;;;;33.42;21.52;;;6.90;96.60;;;;;;5074872;28;20043;-62
2023/01/26 05:44:51;;;;;;;34.55;22.25;;;6.90;96.70;;;;;;5073875;28;20133;-63
2023/01/26 05:47:17;;;;;;;32.88;20.33;;;6.90;96.70;;;;;;5073659;28;20038;-62
2023/01/26 05:49:44;;;;;;;30.02;20.00;;;7.00;96.50;;;;;;5073609;28;20029;-62
2023/01/26 05:52:13;;;;;;;32.97;21.40;;;6.90;95.90;;;;;;5074901;28;20021;-63
2023/01/26 05:54:39;;;;;;;30.23;19.27;;;6.90;96.10;;;;;;5072883;28;20464;-62
2023/01/26 05:57:04;;;;;;;31.30;20.50;;;6.90;95.80;;;;;;5074262;28;20036;-63
2023/01/26 05:59:30;;;;;;;32.05;21.25;;;6.90;96.00;;;;;;5074494;28;20074;-63
2023/01/26 06:01:56;;;;;;;29.50;18.63;;;6.80;96.30;;;;;;5067164;28;20487;-64
2023/01/26 06:04:22;;;;;;;28.58;19.10;;;6.80;96.20;;;;;;5072085;28;20112;-62
2023/01/26 06:06:48;;;;;;;30.17;19.27;;;6.90;96.20;;;;;;5072575;28;20063;-62
2023/01/26 06:09:14;;;;;;;29.77;19.63;;;6.90;96.20;;;;;;5072934;28;20411;-64
2023/01/26 06:11:39;;;;;;;29.70;20.13;;;6.90;96.40;;;;;;5074365;28;20031;-62
2023/01/26 06:14:05;;;;;;;27.52;18.08;;;6.90;96.20;;;;;;5072980;28;20032;-62
2023/01/26 06:16:30;;;;;;;30.38;20.33;;;6.90;96.30;;;;;;5074077;28;20029;-64
2023/01/26 06:18:56;;;;;;;29.08;19.02;;;6.80;96.20;;;;;;5071780;28;20042;-62
2023/01/26 06:21:21;;;;;;;30.23;20.35;;;6.90;96.30;;;;;;5073470;28;20499;-62
2023/01/26 06:23:47;;;;;;;29.98;18.88;;;6.80;96.50;;;;;;5074102;28;20474;-61
2023/01/26 06:26:14;;;;;;;30.02;18.73;;;6.80;96.40;;;;;;5073594;28;20545;-62
2023/01/26 06:28:39;;;;;;;31.38;19.88;;;6.90;96.40;;;;;;5072650;28;20029;-63
2023/01/26 06:31:07;;;;;;;31.80;20.42;;;6.90;96.40;;;;;;5073139;28;20020;-64
2023/01/26 06:33:34;;;;;;;31.90;19.73;;;6.90;96.40;;;;;;5072295;28;20469;-64
2023/01/26 06:36:06;;;;;;;31.95;19.58;;;6.80;96.70;;;;;;5073553;28;20439;-62
2023/01/26 06:38:33;;;;;;;31.05;20.13;;;6.90;96.70;;;;;;5062592;28;20055;-66
2023/01/26 06:41:01;;;;;;;30.52;20.13;;;6.90;96.50;;;;;;5064799;28;20096;-64
2023/01/26 06:43:28;;;;;;;33.97;20.33;;;6.90;96.80;;;;;;5053466;28;20109;-62
2023/01/26 06:45:56;;;;;;;31.63;21.33;;;6.90;96.90;;;;;;5064654;28;20033;-63
2023/01/26 06:48:21;;;;;;;34.85;20.67;;;6.90;96.90;;;;;;5072950;28;20028;-69
2023/01/26 06:50:49;;;;;;;31.95;20.77;;;7.00;96.90;;;;;;5072026;28;20094;-65
2023/01/26 06:53:28;;;;;;;33.92;20.05;;;6.90;96.90;;;;;;5071930;28;20207;-65
2023/01/26 06:55:54;;;;;;;32.28;20.33;;;6.90;97.00;;;;;;5069230;28;20032;-67
2023/01/26 06:58:19;;;;;;;35.28;20.77;;;6.90;97.20;;;;;;5070063;28;20102;-70
2023/01/26 07:00:45;;;;;;;36.00;21.98;;;6.90;97.20;;;;;;5076629;28;20017;-67
2023/01/26 07:03:10;;;;;;;34.13;22.83;;;6.90;97.30;;;;;;5069392;28;20025;-66
2023/01/26 07:05:36;;;;;;;33.38;22.13;;;6.90;97.40;;;;;;5066792;28;20029;-67
2023/01/26 07:08:03;;;;;;;33.25;21.35;;;7.00;97.20;;;;;;5077925;28;20020;-70
2023/01/26 07:10:29;;;;;;;29.95;20.15;;;7.10;97.00;;;;;;5074773;28;20055;-65
2023/01/26 07:12:55;;;;;;;34.28;19.85;;;7.20;96.80;;;;;;5069881;28;20028;-71
2023/01/26 07:15:20;;;;;;;38.80;20.58;;;6.80;97.60;;;;;;5066296;28;20036;-71
2023/01/26 07:17:46;;;;;;;32.85;20.30;;;6.80;98.10;;;;;;5069278;28;20027;-72
2023/01/26 07:20:12;;;;;;;32.95;20.88;;;6.80;98.10;;;;;;5071878;28;20051;-72
2023/01/26 07:22:37;;;;;;;36.97;22.65;;;6.80;98.00;;;;;;5071125;28;20024;-72
2023/01/26 07:25:03;;;;;;;33.35;20.63;;;7.00;97.70;;;;;;5076758;28;20499;-69
2023/01/26 07:27:28;;;;;;;34.50;21.45;;;7.00;97.50;;;;;;5085242;28;20035;-64
2023/01/26 07:29:54;;;;;;;34.50;20.67;;;6.80;98.10;;;;;;5070647;28;20032;-67
2023/01/26 07:32:19;;;;;;;35.33;22.00;;;6.80;98.20;;;;;;5071122;28;20455;-71
2023/01/26 07:34:45;;;;;;;36.55;21.10;;;7.00;97.80;;;;;;5069618;28;20039;-61
2023/01/26 07:37:10;;;;;;;34.17;20.98;;;7.10;97.60;;;;;;5070871;28;20485;-74
2023/01/26 07:39:36;;;;;;;33.38;19.42;;;7.10;97.80;;;;;;5071301;28;20519;-73
2023/01/26 07:42:01;;;;;;;32.58;19.88;;;7.00;98.10;;;;;;5068936;28;20024;-73
2023/01/26 07:44:27;;;;;;;37.22;22.38;;;7.20;97.90;;;;;;5070887;28;20035;-69
2023/01/26 07:46:53;;;;;;;33.75;20.65;;;7.10;98.40;;;;;;5068479;28;20047;-64
2023/01/26 07:49:18;;;;;;;36.88;22.30;;;7.10;98.90;;;;;;5064941;28;20029;-59
2023/01/26 07:51:44;;;;;;;32.38;19.95;;;7.20;98.80;;;;;;5066903;28;20039;-64
2023/01/26 07:54:11;;;;;;;36.58;22.88;;;7.20;98.50;;;;;;5067451;28;20094;-69
2023/01/26 07:56:37;;;;;;;36.22;21.83;;;7.20;98.20;;;;;;5071032;28;20531;-70
2023/01/26 07:59:03;;;;;;;35.70;21.00;;;7.20;98.10;;;;;;5072443;28;20028;-61
2023/01/26 08:01:29;;;;;;;35.53;21.38;;;7.20;98.10;;;;;;5069986;28;20025;-64
2023/01/26 08:03:55;;;;;;;37.40;21.65;;;7.30;97.90;;;;;;5077767;28;20086;-66
2023/01/26 08:06:21;;;;;;;38.40;22.45;;;7.20;97.90;;;;;;5069553;28;20051;-61
2023/01/26 08:08:52;;;;;;;39.72;22.85;;;7.30;97.90;;;;;;5068602;28;20027;-60
2023/01/26 08:11:18;;;;;;;35.47;21.80;;;7.30;97.90;;;;;;5072236;28;20017;-64
2023/01/26 08:13:44;;;;;;;33.38;21.83;;;7.30;97.90;;;;;;5087613;28;20055;-68
2023/01/26 08:16:13;;;;;;;35.67;22.17;;;7.30;98.00;;;;;;5090335;28;20063;-71
2023/01/26 08:18:43;;;;;;;37.67;22.00;;;7.30;98.00;;;;;;5076122;28;20099;-60
2023/01/26 08:21:10;;;;;;;40.40;23.25;;;7.30;98.00;;;;;;5056097;28;20025;-63
2023/01/26 08:23:35;;;;;;;35.97;22.02;;;7.20;98.80;;;;;;5057957;28;20021;-68
2023/01/26 08:26:03;;;;;;;35.72;21.65;;;7.30;98.40;;;;;;5071884;28;20035;-70
2023/01/26 08:28:29;;;;;;;42.30;24.55;;;7.30;98.30;;;;;;5072031;28;20029;-72
2023/01/26 08:30:55;;;;;;;42.55;23.83;;;7.30;98.30;;;;;;5070547;28;20032;-72
2023/01/26 08:33:21;;;;;;;38.65;23.88;;;7.30;98.40;;;;;;5070626;28;20036;-69
2023/01/26 08:35:46;;;;;;;42.13;23.02;;;7.40;98.40;;;;;;5068092;28;20016;-70
2023/01/26 08:38:12;;;;;;;42.33;23.75;;;7.30;98.40;;;;;;5069166;28;20512;-67
2023/01/26 08:40:37;;;;;;;41.80;23.90;;;7.30;98.40;;;;;;5071060;28;20162;-69
2023/01/26 08:43:03;;;;;;;38.03;23.13;;;7.30;98.60;;;;;;5054623;28;20033;-68
2023/01/26 08:45:29;;;;;;;42.75;23.63;;;7.30;98.70;;;;;;5054195;28;20021;-68
2023/01/26 08:47:55;;;;;;;44.80;23.50;;;7.40;98.70;;;;;;5055649;28;20474;-68
2023/01/26 08:50:20;;;;;;;42.17;23.48;;;7.40;98.70;;;;;;5055829;28;20171;-62
2023/01/26 08:52:46;;;;;;;49.03;26.15;;;7.40;98.80;;;;;;5055228;28;20466;-68
2023/01/26 08:55:12;;;;;;;44.47;25.23;;;7.40;98.80;;;;;;5055619;28;20052;-68
2023/01/26 08:57:38;;;;;;;49.15;27.77;;;7.40;98.80;;;;;;5055672;28;20028;-68
2023/01/26 09:00:03;;;;;;;48.33;25.40;;;7.40;98.80;;;;;;5055355;28;20075;-68
2023/01/26 09:02:29;;;;;;;51.60;25.10;;;7.40;98.90;;;;;;5055409;28;20021;-68
2023/01/26 09:04:54;;;;;;;50.67;27.00;;;7.50;99.00;;;;;;5055555;28;20043;-68
2023/01/26 09:07:20;;;;;;;56.00;27.70;;;7.50;99.00;;;;;;5055302;28;20051;-68
2023/01/26 09:09:45;;;;;;;50.35;28.27;;;7.50;99.10;;;;;;5055070;28;20068;-68
2023/01/26 09:12:11;;;;;;;56.85;27.27;;;7.50;99.20;;;;;;5055508;28;20040;-69
2023/01/26 09:14:36;;;;;;;48.92;25.30;;;7.50;99.30;;;;;;5055164;28;20037;-68
2023/01/26 09:17:02;;;;;;;52.25;27.67;;;7.50;99.30;;;;;;5055179;28;20139;-67
2023/01/26 09:19:28;;;;;;;52.92;26.70;;;7.50;99.50;;;;;;5055064;28;20021;-61
2023/01/26 09:21:53;;;;;;;50.85;25.35;;;7.50;99.60;;;;;;5055482;28;20022;-64
2023/01/26 09:24:20;;;;;;;59.78;26.50;;;7.50;99.80;;;;;;5055390;28;20446;-63
2023/01/26 09:26:46;;;;;;;46.85;25.52;;;7.50;99.90;;;;;;5054989;28;20050;-66
2023/01/26 09:29:11;;;;;;;47.13;24.27;;;7.50;99.90;;;;;;5054708;28;20116;-66
2023/01/26 09:31:37;;;;;;;49.92;23.85;;;7.50;99.90;;;;;;5055062;28;20021;-66
2023/01/26 09:34:02;;;;;;;44.13;22.83;;;7.50;99.90;;;;;;5055281;28;20036;-65
2023/01/26 09:36:28;;;;;;;46.33;22.17;;;7.50;99.90;;;;;;5054822;28;20025;-65
2023/01/26 09:38:53;;;;;;;47.25;22.98;;;7.60;99.90;;;;;;5054736;28;20033;-68
2023/01/26 09:41:42;;;;;;;44.15;21.83;;;7.60;99.90;;;;;;5055184;28;20017;-62
2023/01/26 09:44:14;;;;;;;41.63;21.27;;;7.60;99.90;;;;;;5054348;28;20024;-66
2023/01/26 09:46:58;;;;;;;;;;;7.60;99.90;;;;;;5055241;28;20020;-68
2023/01/26 09:49:42;;;;;;;39.45;18.02;;;7.60;99.90;;;;;;5059778;28;19908;-59
2023/01/26 09:52:21;;;;;;;43.85;18.40;;;7.60;99.90;;;;;;5074779;28;20146;-61
2023/01/26 09:54:52;;;;;;;38.30;17.55;;;7.70;99.90;;;;;;5069997;28;20040;-60
2023/01/26 09:57:43;;;;;;;38.20;18.25;;;7.70;99.90;;;;;;5072936;28;20501;-59
2023/01/26 10:00:26;;;;;;;38.55;15.43;;;7.80;99.90;;;;;;5072477;28;20591;-59
2023/01/26 10:03:22;;;;;;;32.13;13.75;;;7.90;99.90;;;;;;5068340;28;20103;-59
2023/01/26 10:05:53;;;;;;;30.80;12.43;;;7.90;99.90;;;;;;5055737;28;20031;-59
2023/01/26 10:08:22;;;;;;;33.63;12.77;;;8.00;99.90;;;;;;5073297;28;20023;-58
2023/01/26 10:10:54;;;;;;;33.40;10.50;;;8.00;99.90;;;;;;5074029;28;20035;-59
2023/01/26 10:13:22;;;;;;;27.58;10.50;;;8.00;99.90;;;;;;5073772;28;20045;-58
2023/01/26 10:15:55;;;;;;;31.83;10.73;;;8.10;99.90;;;;;;5073191;28;20059;-59
2023/01/26 10:18:26;;;;;;;23.30;8.38;;;8.10;99.90;;;;;;5070711;28;20074;-58
2023/01/26 10:20:55;;;;;;;31.40;8.80;;;8.20;99.90;;;;;;5067331;28;20075;-59
2023/01/26 10:23:31;;;;;;;25.05;9.50;;;8.20;99.90;;;;;;5068301;28;20044;-59
2023/01/26 10:26:13;;;;;;;29.30;7.28;;;8.30;99.90;;;;;;5076017;28;20028;-60
2023/01/26 10:28:40;;;;;;;;;;;8.30;99.90;;;;;;5073930;28;20389;-59
2023/01/26 10:31:13;;;;;;;26.58;7.15;;;8.30;99.90;;;;;;5073918;28;19995;-59
2023/01/26 10:33:51;;;;;;;23.13;5.85;;;8.30;99.90;;;;;;5073476;28;20035;-61
2023/01/26 10:36:17;;;;;;;21.65;5.70;;;8.40;99.90;;;;;;5073704;28;20054;-60
2023/01/26 10:38:44;;;;;;;23.40;4.25;;;8.30;99.90;;;;;;5066193;28;20035;-60
2023/01/26 10:41:12;;;;;;;30.65;4.25;;;8.40;99.90;;;;;;5071351;28;20062;-59
2023/01/26 10:43:40;;;;;;;28.38;5.00;;;8.40;99.90;;;;;;5071599;28;20077;-62
2023/01/26 10:46:28;;;;;;;23.42;5.00;;;8.40;99.90;;;;;;5072547;28;20070;-59
2023/01/26 10:48:56;;;;;;;18.65;4.80;;;8.50;99.90;;;;;;5072193;28;20073;-61
2023/01/26 10:51:30;;;;;;;21.73;4.40;;;8.40;99.90;;;;;;5062128;28;20032;-59
2023/01/26 10:54:23;;;;;;;21.25;4.18;;;8.50;99.90;;;;;;5068306;28;20115;-59
2023/01/26 10:56:54;;;;;;;21.85;4.35;;;8.50;99.90;;;;;;5073367;28;20043;-59
2023/01/26 10:59:27;;;;;;;20.05;4.43;;;8.50;99.90;;;;;;5073224;28;20074;-60
2023/01/26 11:02:12;;;;;;;16.33;4.63;;;8.60;99.90;;;;;;5055191;28;20028;-60
2023/01/26 11:04:38;;;;;;;25.10;4.47;;;8.60;99.90;;;;;;5073212;28;20082;-60
2023/01/26 11:07:26;;;;;;;16.75;4.57;;;8.60;99.90;;;;;;5055095;28;20029;-60
2023/01/26 11:09:52;;;;;;;24.50;4.55;;;8.70;99.90;;;;;;5073079;28;20031;-59
2023/01/26 11:12:19;;;;;;;28.55;4.95;;;8.60;99.90;;;;;;5072998;28;20028;-60
2023/01/26 11:15:02;;;;;;;21.38;4.88;;;8.70;99.90;;;;;;5073049;28;20107;-60
2023/01/26 11:17:39;;;;;;;18.25;3.72;;;8.70;99.90;;;;;;5073007;28;20104;-60
2023/01/26 11:20:20;;;;;;;19.08;3.65;;;8.70;99.90;;;;;;5072890;28;20166;-60
2023/01/26 11:23:12;;;;;;;16.88;4.28;;;8.80;99.90;;;;;;5073269;28;20024;-60
2023/01/26 11:25:44;;;;;;;21.75;4.07;;;8.80;99.90;;;;;;5071970;28;20392;-60
2023/01/26 11:28:41;;;;;;;19.00;4.35;;;8.80;99.90;;;;;;5054887;28;20031;-61
2023/01/26 11:31:29;;;;;;;24.80;4.20;;;8.90;99.90;;;;;;5072682;28;20028;-62
2023/01/26 11:34:16;;;;;;;20.58;4.45;;;8.80;99.90;;;;;;5072693;28;20041;-68
2023/01/26 11:36:44;;;;;;;24.05;4.63;;;8.90;99.90;;;;;;5066289;28;20083;-61
2023/01/26 11:39:21;;;;;;;14.18;3.42;;;8.90;99.90;;;;;;5051061;28;20446;-69
2023/01/26 11:42:20;;;;;;;19.95;3.80;;;9.00;99.90;;;;;;5071764;28;20024;-60
2023/01/26 11:44:45;;;;;;;20.77;4.25;;;9.10;99.90;;;;;;5064201;28;20389;-60
2023/01/26 11:47:45;;;;;;;20.15;3.42;;;9.10;99.90;;;;;;5071366;28;20495;-66
2023/01/26 11:50:32;;;;;;;20.00;4.07;;;9.10;99.90;;;;;;5054707;28;20064;-67
2023/01/26 11:53:37;;;;;;;18.23;3.75;;;9.10;99.90;;;;;;5069063;28;20035;-65
2023/01/26 11:56:13;;;;;;;23.25;3.92;;;9.10;99.90;;;;;;5069537;28;20016;-65
2023/01/26 11:58:45;;;;;;;23.08;4.18;;;9.10;99.90;;;;;;5070625;28;20028;-59
2023/01/26 12:01:19;;;;;;;;;;;9.20;99.90;;;;;;5073774;28;20461;-57
2023/01/26 12:03:49;;;;;;;22.98;3.83;;;9.10;99.90;;;;;;5068881;28;20597;-57
2023/01/26 12:06:22;;;;;;;22.73;4.60;;;9.20;99.90;;;;;;5064013;28;20364;-58
2023/01/26 12:08:53;;;;;;;22.02;3.22;;;9.30;99.90;;;;;;5072191;28;20020;-57
2023/01/26 12:11:24;;;;;;;16.42;3.88;;;9.30;99.90;;;;;;5070909;28;20468;-58
2023/01/26 12:14:11;;;;;;;20.80;4.25;;;9.40;99.90;;;;;;5070280;28;20040;-60
2023/01/26 12:16:44;;;;;;;14.77;3.10;;;9.40;99.90;;;;;;5065345;28;20141;-61
2023/01/26 12:19:27;;;;;;;19.55;3.80;;;9.30;99.90;;;;;;5071874;28;20470;-60
2023/01/26 12:21:59;;;;;;;24.95;3.67;;;9.40;99.90;;;;;;5070864;28;20060;-59
2023/01/26 12:24:35;;;;;;;17.90;4.40;;;9.40;99.90;;;;;;5069374;28;20470;-60
2023/01/26 12:27:04;;;;;;;21.30;3.67;;;9.50;99.70;;;;;;5071523;28;20024;-62
2023/01/26 12:30:03;;;;;;;18.33;3.33;;;9.50;99.60;;;;;;5069026;28;20127;-60
2023/01/26 12:32:28;;;;;;;21.48;4.30;;;9.50;99.50;;;;;;5071856;28;20029;-60
2023/01/26 12:34:54;;;;;;;18.63;4.53;;;9.50;99.30;;;;;;5073697;28;20033;-59
2023/01/26 12:37:41;;;;;;;17.15;3.25;;;9.60;99.00;;;;;;5075459;28;20024;-59
2023/01/26 12:40:12;;;;;;;18.45;3.63;;;9.50;99.30;;;;;;5070770;28;20081;-58
2023/01/26 12:43:09;;;;;;;15.90;3.83;;;9.60;99.60;;;;;;5076907;28;20024;-62
2023/01/26 12:45:40;;;;;;;15.25;3.45;;;9.70;99.10;;;;;;5085884;28;20036;-58
2023/01/26 12:48:59;;;;;;;16.60;3.63;;;9.60;99.10;;;;;;5073130;28;20102;-57
2023/01/26 12:51:32;;;;;;;17.02;3.03;;;9.70;98.50;;;;;;4972056;28;20042;-63
2023/01/26 12:54:15;;;;;;;20.15;3.83;;;9.80;98.10;;;;;;4968565;28;20235;-70
2023/01/26 12:56:46;;;;;;;13.52;2.72;;;9.80;97.60;;;;;;5043038;28;20032;-59
2023/01/26 12:59:44;;;;;;;18.38;3.67;;;9.80;96.90;;;;;;5068887;28;20051;-60
2023/01/26 13:02:17;;;;;;;16.08;3.20;;;9.80;97.60;;;;;;5060050;28;20028;-57
2023/01/26 13:04:44;;;;;;;14.23;3.65;;;9.70;98.10;;;;;;5073908;28;20025;-59
2023/01/26 13:07:38;;;;;;;20.33;3.85;;;9.80;97.80;;;;;;5072072;28;20111;-59
2023/01/26 13:10:12;;;;;;;12.02;2.95;;;9.80;97.50;;;;;;5071282;28;20322;-60
2023/01/26 13:12:54;;;;;;;13.05;3.08;;;9.90;96.80;;;;;;5068489;28;20450;-59
2023/01/26 13:15:22;;;;;;;16.30;3.13;;;10.00;96.50;;;;;;5078150;28;20040;-59
2023/01/26 13:17:49;;;;;;;15.70;3.95;;;9.90;97.00;;;;;;5074674;28;20021;-62
2023/01/26 13:20:45;;;;;;;18.00;3.70;;;9.90;97.40;;;;;;5074940;28;20029;-61
2023/01/26 13:23:35;;;;;;;13.57;3.28;;;10.10;98.60;;;;;;5073589;28;20028;-60
2023/01/26 13:26:16;;;;;;;17.50;3.40;;;10.30;98.40;;;;;;5069986;28;20035;-60
2023/01/26 13:28:43;;;;;;;12.40;3.10;;;10.40;98.10;;;;;;5073528;28;20064;-60
2023/01/26 13:31:09;;;;;;;14.85;3.72;;;10.50;97.90;;;;;;5072507;28;20028;-62
2023/01/26 13:33:35;;;;;;;13.90;3.20;;;10.60;97.90;;;;;;5071910;28;20129;-60
2023/01/26 13:36:13;;;;;;;17.63;3.40;;;10.60;97.90;;;;;;5082585;28;20020;-61
2023/01/26 13:38:51;;;;;;;16.90;3.53;;;10.80;97.70;;;;;;5072432;28;20031;-60